Latest  Newer  Older  Last 2 hours animation  Current image  Latest image 
Rain/snow radar  Infrared sat images 
Real-time lightning map

All time is UTC (add 2 hours to UTC in wintertime, 3 hours to UTC in DST for Latvia local time)

2020/07/13 21:20 EVRA 132120Z 22002KT 9999 MIFG NSC 11/11 Q1016 NOSIG
2020/07/13 21:20 EVLA 132120Z AUTO VRB02KT 9999 FEW013/// 13/12 Q1017
2020/07/13 21:20 EVVA 132120Z AUTO 18003KT 9999 SCT038 OVC060 13/13 Q1016
2020/07/13 21:20 EYKA 132120Z AUTO 28005KT 9999 NCD 12/09 Q1018
2020/07/13 21:20 EYPA 132120Z AUTO 27003KT 210V340 9999 BKN014/// BKN025/// 15/12 Q1018
2020/07/13 21:20 EYSA 132120Z 27007KT CAVOK 12/10 Q1018 BLU NOSIG
2020/07/13 21:20 EYVI 132120Z 32004KT CAVOK 13/10 Q1017 NOSIG
2020/07/13 14:50 EEKA 131450Z 29008KT 240V330 9999 FEW023 17/11 Q1015
2020/07/13 20:50 EEKE 132050Z AUTO 31004KT 280V340 9999NDV NSC 14/12 Q1016
2020/07/13 12:50 EEPU 131250Z 03005KT 360V090 9999 BKN035 18/16 Q1015
2020/07/13 21:20 EETN 132120Z 26008KT CAVOK 13/12 Q1014 NOSIG
2020/07/13 20:50 EETU 132050Z AUTO VRB03KT 9999 NCD 11/08 Q1015
   RIGA AIRPORT     EVRA               56 55N  023 58E   10   X     T          6 LV
   LIEPAJA INTL     EVLA        26406  56 31N  021 06E    4   X                8 LV
   VENTPILS         EVVA               57 21N  021 33E    6   X                8 LV
   KAUNAS           EYKA               54 54N  023 55E   77   X     T          6 LT
   PALANGA INTL     EYPA               55 55N  021 03E   10   X                6 LT
   SIAULIAI INTL    EYSA               55 54N  023 24E  135   X     T          6 LT
   VILNIUS INTL     EYVI        26730  54 38N  025 17E  197   X     T          6 LT
   KARDLA           EEKA        26116  58 59N  022 50E    4   X                8 EE
   KURESSAARE       EEKE               58 14N  022 31E    4   X                8 EE
   PARNU            EEPU               58 25N  024 28E   14   X                8 EE
   TALLINN          EETN        26038  59 24N  024 49E   40   X     T          8 EE
   TARTU            EETU               58 19N  026 41E   67   X                8 EE

cloud coverage image from sat24.com and METAR data from weather.noaa.gov